sensor_id;sensor_type;location;lat;lon;timestamp;pressure;altitude;pressure_sealevel;temperature;humidity
57779;BME280;43608;49.486;9.640;2023-03-30T00:00:29;98289.47;;;9.47;71.97
57779;BME280;43608;49.486;9.640;2023-03-30T00:01:02;98292.09;;;9.55;71.66
57779;BME280;43608;49.486;9.640;2023-03-30T00:01:32;98277.09;;;9.54;71.18
57779;BME280;43608;49.486;9.640;2023-03-30T00:02:03;98284.97;;;9.66;70.61
57779;BME280;43608;49.486;9.640;2023-03-30T00:02:34;98279.66;;;9.66;70.63
57779;BME280;43608;49.486;9.640;2023-03-30T00:03:08;98301.63;;;9.81;70.56
57779;BME280;43608;49.486;9.640;2023-03-30T00:03:43;98289.22;;;9.84;70.57
57779;BME280;43608;49.486;9.640;2023-03-30T00:04:14;98275.19;;;9.71;70.53
57779;BME280;43608;49.486;9.640;2023-03-30T00:04:45;98288.31;;;9.85;70.36
57779;BME280;43608;49.486;9.640;2023-03-30T00:05:16;98292.69;;;9.89;70.14
57779;BME280;43608;49.486;9.640;2023-03-30T00:05:48;98302.38;;;9.95;69.87
57779;BME280;43608;49.486;9.640;2023-03-30T00:06:19;98292.63;;;9.99;69.69
57779;BME280;43608;49.486;9.640;2023-03-30T00:06:53;98303.19;;;10.03;69.50
57779;BME280;43608;49.486;9.640;2023-03-30T00:07:23;98289.97;;;10.02;69.20
57779;BME280;43608;49.486;9.640;2023-03-30T00:08:00;98290.81;;;10.04;69.22
57779;BME280;43608;49.486;9.640;2023-03-30T00:08:35;98275.00;;;9.98;69.04
57779;BME280;43608;49.486;9.640;2023-03-30T00:09:06;98290.81;;;10.07;69.01
57779;BME280;43608;49.486;9.640;2023-03-30T00:09:37;98296.94;;;10.12;68.80
57779;BME280;43608;49.486;9.640;2023-03-30T00:10:14;98299.56;;;10.15;69.09
57779;BME280;43608;49.486;9.640;2023-03-30T00:10:46;98299.53;;;10.17;69.01
57779;BME280;43608;49.486;9.640;2023-03-30T00:11:17;98298.66;;;10.18;68.63
57779;BME280;43608;49.486;9.640;2023-03-30T00:11:47;98288.09;;;10.15;68.22
57779;BME280;43608;49.486;9.640;2023-03-30T00:12:17;98265.19;;;10.07;68.21
57779;BME280;43608;49.486;9.640;2023-03-30T00:12:49;98266.09;;;10.06;68.23
57779;BME280;43608;49.486;9.640;2023-03-30T00:13:20;98288.91;;;10.21;68.22
57779;BME280;43608;49.486;9.640;2023-03-30T00:13:50;98279.22;;;10.19;68.14
57779;BME280;43608;49.486;9.640;2023-03-30T00:14:21;98296.81;;;10.28;67.87
57779;BME280;43608;49.486;9.640;2023-03-30T00:15:01;98293.25;;;10.29;67.66
57779;BME280;43608;49.486;9.640;2023-03-30T00:15:31;98296.72;;;10.34;67.65
57779;BME280;43608;49.486;9.640;2023-03-30T00:16:03;98291.44;;;10.37;67.86
57779;BME280;43608;49.486;9.640;2023-03-30T00:16:33;98282.59;;;10.35;67.58
57779;BME280;43608;49.486;9.640;2023-03-30T00:17:04;98295.81;;;10.41;67.43
57779;BME280;43608;49.486;9.640;2023-03-30T00:17:34;98294.03;;;10.43;67.06
57779;BME280;43608;49.486;9.640;2023-03-30T00:18:05;98296.66;;;10.46;66.89
57779;BME280;43608;49.486;9.640;2023-03-30T00:18:36;98295.72;;;10.50;66.96
57779;BME280;43608;49.486;9.640;2023-03-30T00:19:08;98272.84;;;10.41;66.79
57779;BME280;43608;49.486;9.640;2023-03-30T00:19:38;98264.91;;;10.40;66.61
57779;BME280;43608;49.486;9.640;2023-03-30T00:20:10;98290.41;;;10.52;66.76
57779;BME280;43608;49.486;9.640;2023-03-30T00:20:41;98279.81;;;10.50;66.64
57779;BME280;43608;49.486;9.640;2023-03-30T00:21:12;98278.06;;;10.49;66.55
57779;BME280;43608;49.486;9.640;2023-03-30T00:21:42;98289.47;;;10.57;67.01
57779;BME280;43608;49.486;9.640;2023-03-30T00:22:14;98294.72;;;10.61;66.75
57779;BME280;43608;49.486;9.640;2023-03-30T00:22:45;98278.00;;;10.55;66.58
57779;BME280;43608;49.486;9.640;2023-03-30T00:23:17;98291.19;;;10.63;66.62
57779;BME280;43608;49.486;9.640;2023-03-30T00:23:51;98285.00;;;10.61;66.41
57779;BME280;43608;49.486;9.640;2023-03-30T00:24:21;98267.38;;;10.57;66.19
57779;BME280;43608;49.486;9.640;2023-03-30T00:24:52;98291.97;;;10.71;66.05
57779;BME280;43608;49.486;9.640;2023-03-30T00:25:23;98271.69;;;10.67;65.93
57779;BME280;43608;49.486;9.640;2023-03-30T00:25:54;98279.56;;;10.73;65.91
57779;BME280;43608;49.486;9.640;2023-03-30T00:26:24;98262.84;;;10.68;65.82
57779;BME280;43608;49.486;9.640;2023-03-30T00:26:56;98249.63;;;10.64;65.70
57779;BME280;43608;49.486;9.640;2023-03-30T00:27:26;98275.09;;;10.79;65.67
57779;BME280;43608;49.486;9.640;2023-03-30T00:27:56;98275.06;;;10.80;65.53
57779;BME280;43608;49.486;9.640;2023-03-30T00:28:27;98260.13;;;10.74;65.30
57779;BME280;43608;49.486;9.640;2023-03-30T00:28:59;98268.03;;;10.81;65.31
57779;BME280;43608;49.486;9.640;2023-03-30T00:29:30;98258.34;;;10.78;65.41
57779;BME280;43608;49.486;9.640;2023-03-30T00:30:01;98265.31;;;10.84;65.01
57779;BME280;43608;49.486;9.640;2023-03-30T00:30:32;98253.88;;;10.80;64.99
57779;BME280;43608;49.486;9.640;2023-03-30T00:31:03;98262.56;;;10.91;65.09
57779;BME280;43608;49.486;9.640;2023-03-30T00:31:33;98255.50;;;10.92;64.66
57779;BME280;43608;49.486;9.640;2023-03-30T00:32:03;98246.72;;;10.87;64.44
57779;BME280;43608;49.486;9.640;2023-03-30T00:32:34;98251.09;;;10.89;64.46
57779;BME280;43608;49.486;9.640;2023-03-30T00:33:05;98250.16;;;10.94;64.42
57779;BME280;43608;49.486;9.640;2023-03-30T00:33:36;98262.41;;;11.04;64.14
57779;BME280;43608;49.486;9.640;2023-03-30T00:34:06;98258.88;;;11.03;63.90
57779;BME280;43608;49.486;9.640;2023-03-30T00:34:37;98236.84;;;10.98;63.79
57779;BME280;43608;49.486;9.640;2023-03-30T00:35:08;98254.38;;;11.10;63.64
57779;BME280;43608;49.486;9.640;2023-03-30T00:35:39;98230.59;;;11.02;63.51
57779;BME280;43608;49.486;9.640;2023-03-30T00:36:10;98249.00;;;11.16;63.39
57779;BME280;43608;49.486;9.640;2023-03-30T00:36:40;98227.94;;;11.04;63.25
57779;BME280;43608;49.486;9.640;2023-03-30T00:37:10;98256.88;;;11.21;63.13
57779;BME280;43608;49.486;9.640;2023-03-30T00:37:41;98270.94;;;11.26;63.06
57779;BME280;43608;49.486;9.640;2023-03-30T00:38:14;98253.31;;;11.23;62.85
57779;BME280;43608;49.486;9.640;2023-03-30T00:38:45;98253.31;;;11.25;63.08
57779;BME280;43608;49.486;9.640;2023-03-30T00:39:15;98260.28;;;11.31;63.02
57779;BME280;43608;49.486;9.640;2023-03-30T00:39:48;98254.09;;;11.32;63.18
57779;BME280;43608;49.486;9.640;2023-03-30T00:40:20;98239.00;;;11.34;62.99
57779;BME280;43608;49.486;9.640;2023-03-30T00:40:53;98231.94;;;11.34;62.82
57779;BME280;43608;49.486;9.640;2023-03-30T00:41:23;98226.63;;;11.36;62.99
57779;BME280;43608;49.486;9.640;2023-03-30T00:41:54;98213.50;;;11.23;63.30
57779;BME280;43608;49.486;9.640;2023-03-30T00:42:24;98229.25;;;11.36;62.93
57779;BME280;43608;49.486;9.640;2023-03-30T00:42:58;98223.91;;;11.40;62.64
57779;BME280;43608;49.486;9.640;2023-03-30T00:43:29;98197.50;;;11.30;62.79
57779;BME280;43608;49.486;9.640;2023-03-30T00:45:01;98215.81;;;11.47;62.56
57779;BME280;43608;49.486;9.640;2023-03-30T00:45:35;98210.50;;;11.47;62.70
57779;BME280;43608;49.486;9.640;2023-03-30T00:46:06;98216.69;;;11.49;62.71
57779;BME280;43608;49.486;9.640;2023-03-30T00:46:36;98207.94;;;11.44;62.45
57779;BME280;43608;49.486;9.640;2023-03-30T00:47:06;98195.59;;;11.39;62.33
57779;BME280;43608;49.486;9.640;2023-03-30T00:47:39;98221.91;;;11.55;62.54
57779;BME280;43608;49.486;9.640;2023-03-30T00:48:22;98214.00;;;11.50;62.38
57779;BME280;43608;49.486;9.640;2023-03-30T00:49:00;98188.50;;;11.40;62.11
57779;BME280;43608;49.486;9.640;2023-03-30T00:49:34;98206.94;;;11.49;62.10
57779;BME280;43608;49.486;9.640;2023-03-30T00:50:05;98206.06;;;11.49;62.05
57779;BME280;43608;49.486;9.640;2023-03-30T00:51:08;98201.59;;;11.51;62.08
57779;BME280;43608;49.486;9.640;2023-03-30T00:51:41;98220.88;;;11.64;62.08
57779;BME280;43608;49.486;9.640;2023-03-30T00:52:11;98216.44;;;11.64;62.01
57779;BME280;43608;49.486;9.640;2023-03-30T00:52:43;98215.53;;;11.67;62.03
57779;BME280;43608;49.486;9.640;2023-03-30T00:53:21;98206.78;;;11.60;61.90
57779;BME280;43608;49.486;9.640;2023-03-30T00:53:57;98206.69;;;11.65;62.13
57779;BME280;43608;49.486;9.640;2023-03-30T00:54:29;98196.22;;;11.55;61.93
57779;BME280;43608;49.486;9.640;2023-03-30T00:54:59;98212.91;;;11.65;61.97
57779;BME280;43608;49.486;9.640;2023-03-30T00:55:31;98197.94;;;11.60;61.93
57779;BME280;43608;49.486;9.640;2023-03-30T00:56:03;98211.97;;;11.68;62.14
57779;BME280;43608;49.486;9.640;2023-03-30T00:56:36;98203.19;;;11.64;62.51
57779;BME280;43608;49.486;9.640;2023-03-30T00:57:07;98210.22;;;11.67;62.71
57779;BME280;43608;49.486;9.640;2023-03-30T00:57:40;98163.78;;;11.39;62.72
57779;BME280;43608;49.486;9.640;2023-03-30T00:58:14;98210.25;;;11.65;63.04
57779;BME280;43608;49.486;9.640;2023-03-30T00:58:45;98209.34;;;11.65;62.87
57779;BME280;43608;49.486;9.640;2023-03-30T00:59:16;98206.69;;;11.65;62.70
57779;BME280;43608;49.486;9.640;2023-03-30T00:59:47;98187.41;;;11.55;62.80
57779;BME280;43608;49.486;9.640;2023-03-30T01:00:20;98207.53;;;11.68;62.81
57779;BME280;43608;49.486;9.640;2023-03-30T01:00:51;98204.88;;;11.68;62.86
57779;BME280;43608;49.486;9.640;2023-03-30T01:01:22;98202.28;;;11.65;62.77
57779;BME280;43608;49.486;9.640;2023-03-30T01:01:57;98207.50;;;11.70;62.83
57779;BME280;43608;49.486;9.640;2023-03-30T01:02:29;98195.25;;;11.63;62.59
57779;BME280;43608;49.486;9.640;2023-03-30T01:03:08;98201.34;;;11.66;62.54
57779;BME280;43608;49.486;9.640;2023-03-30T01:03:45;98203.09;;;11.70;62.78
57779;BME280;43608;49.486;9.640;2023-03-30T01:04:17;98201.41;;;11.63;62.67
57779;BME280;43608;49.486;9.640;2023-03-30T01:04:50;98207.53;;;11.68;62.73
57779;BME280;43608;49.486;9.640;2023-03-30T01:05:23;98178.59;;;11.53;62.72
57779;BME280;43608;49.486;9.640;2023-03-30T01:05:55;98196.09;;;11.65;62.69
57779;BME280;43608;49.486;9.640;2023-03-30T01:06:26;98203.94;;;11.71;62.42
57779;BME280;43608;49.486;9.640;2023-03-30T01:06:59;98202.28;;;11.65;62.72
57779;BME280;43608;49.486;9.640;2023-03-30T01:07:31;98196.91;;;11.68;62.80
57779;BME280;43608;49.486;9.640;2023-03-30T01:08:02;98208.41;;;11.70;62.63
57779;BME280;43608;49.486;9.640;2023-03-30T01:08:37;98185.56;;;11.58;62.70
57779;BME280;43608;49.486;9.640;2023-03-30T01:09:08;98197.88;;;11.64;63.10
57779;BME280;43608;49.486;9.640;2023-03-30T01:09:39;98201.34;;;11.66;63.12
57779;BME280;43608;49.486;9.640;2023-03-30T01:10:10;98176.84;;;11.50;63.19
57779;BME280;43608;49.486;9.640;2023-03-30T01:10:43;98207.50;;;11.70;63.11
57779;BME280;43608;49.486;9.640;2023-03-30T01:11:14;98205.75;;;11.69;63.18
57779;BME280;43608;49.486;9.640;2023-03-30T01:11:44;98205.84;;;11.64;63.35
57779;BME280;43608;49.486;9.640;2023-03-30T01:12:15;98202.31;;;11.62;63.52
57779;BME280;43608;49.486;9.640;2023-03-30T01:12:46;98193.50;;;11.62;63.60
57779;BME280;43608;49.486;9.640;2023-03-30T01:13:17;98204.00;;;11.66;63.71
57779;BME280;43608;49.486;9.640;2023-03-30T01:14:02;98203.22;;;11.63;63.76
57779;BME280;43608;49.486;9.640;2023-03-30T01:14:34;98175.06;;;11.51;63.71
57779;BME280;43608;49.486;9.640;2023-03-30T01:15:06;98200.56;;;11.63;63.82
57779;BME280;43608;49.486;9.640;2023-03-30T01:15:45;98189.97;;;11.60;63.70
57779;BME280;43608;49.486;9.640;2023-03-30T01:16:56;98202.31;;;11.62;63.77
57779;BME280;43608;49.486;9.640;2023-03-30T01:17:49;98199.66;;;11.62;63.88
57779;BME280;43608;49.486;9.640;2023-03-30T01:18:32;98200.56;;;11.63;63.78
57779;BME280;43608;49.486;9.640;2023-03-30T01:26:09;98177.50;;;11.65;64.27
57779;BME280;43608;49.486;9.640;2023-03-30T01:26:42;98179.31;;;11.61;64.10
57779;BME280;43608;49.486;9.640;2023-03-30T01:28:30;98178.53;;;11.57;64.26
57779;BME280;43608;49.486;9.640;2023-03-30T01:29:52;98189.03;;;11.62;64.42
57779;BME280;43608;49.486;9.640;2023-03-30T01:33:07;98189.13;;;11.57;64.89
57779;BME280;43608;49.486;9.640;2023-03-30T01:37:47;98192.91;;;11.43;65.81
57779;BME280;43608;49.486;9.640;2023-03-30T01:40:59;98195.63;;;11.38;66.46
57779;BME280;43608;49.486;9.640;2023-03-30T01:43:08;98159.78;;;11.11;66.96
57779;BME280;43608;49.486;9.640;2023-03-30T01:43:51;98190.50;;;11.26;67.04
57779;BME280;43608;49.486;9.640;2023-03-30T01:44:33;98184.34;;;11.23;67.10
57779;BME280;43608;49.486;9.640;2023-03-30T01:45:14;98189.63;;;11.23;67.06
57779;BME280;43608;49.486;9.640;2023-03-30T01:46:33;98187.06;;;11.19;67.59
57779;BME280;43608;49.486;9.640;2023-03-30T01:47:05;98183.56;;;11.17;67.77
57779;BME280;43608;49.486;9.640;2023-03-30T01:48:08;98182.72;;;11.15;67.89
57779;BME280;43608;49.486;9.640;2023-03-30T01:48:43;98190.69;;;11.15;67.83
57779;BME280;43608;49.486;9.640;2023-03-30T01:49:40;98192.50;;;11.11;67.78
57779;BME280;43608;49.486;9.640;2023-03-30T01:50:42;98186.31;;;11.11;67.91
57779;BME280;43608;49.486;9.640;2023-03-30T01:51:20;98184.66;;;11.02;68.17
57779;BME280;43608;49.486;9.640;2023-03-30T01:51:59;98195.19;;;11.08;68.11
57779;BME280;43608;49.486;9.640;2023-03-30T01:52:37;98187.25;;;11.08;68.12
57779;BME280;43608;49.486;9.640;2023-03-30T01:53:16;98160.06;;;10.90;68.45
57779;BME280;43608;49.486;9.640;2023-03-30T01:54:01;98180.28;;;10.99;68.30
57779;BME280;43608;49.486;9.640;2023-03-30T01:54:37;98200.50;;;11.08;68.14
57779;BME280;43608;49.486;9.640;2023-03-30T01:55:16;98196.97;;;11.06;68.47
57779;BME280;43608;49.486;9.640;2023-03-30T01:56:02;98169.78;;;10.91;68.37
57779;BME280;43608;49.486;9.640;2023-03-30T01:56:35;98193.47;;;11.05;68.58
57779;BME280;43608;49.486;9.640;2023-03-30T01:57:17;98194.31;;;11.06;68.68
57779;BME280;43608;49.486;9.640;2023-03-30T01:57:53;98166.19;;;10.96;68.49
57779;BME280;43608;49.486;9.640;2023-03-30T01:59:49;98190.72;;;11.10;68.72
57779;BME280;43608;49.486;9.640;2023-03-30T02:00:23;98191.59;;;11.12;68.84
57779;BME280;43608;49.486;9.640;2023-03-30T02:00:55;98183.59;;;11.14;68.41
57779;BME280;43608;49.486;9.640;2023-03-30T02:01:28;98193.31;;;11.15;68.57
57779;BME280;43608;49.486;9.640;2023-03-30T02:02:03;98180.19;;;11.07;68.09
57779;BME280;43608;49.486;9.640;2023-03-30T02:02:37;98190.69;;;11.15;68.27
57779;BME280;43608;49.486;9.640;2023-03-30T02:03:40;98187.09;;;11.16;68.67
57779;BME280;43608;49.486;9.640;2023-03-30T02:04:12;98181.91;;;11.10;68.44
57779;BME280;43608;49.486;9.640;2023-03-30T02:04:43;98194.16;;;11.17;68.45
57779;BME280;43608;49.486;9.640;2023-03-30T02:05:16;98190.66;;;11.16;68.50
57779;BME280;43608;49.486;9.640;2023-03-30T02:05:50;98204.75;;;11.18;68.63
57779;BME280;43608;49.486;9.640;2023-03-30T02:07:02;98196.00;;;11.13;68.75
57779;BME280;43608;49.486;9.640;2023-03-30T02:07:36;98181.06;;;11.06;68.93
57779;BME280;43608;49.486;9.640;2023-03-30T02:08:12;98194.28;;;11.11;69.02
57779;BME280;43608;49.486;9.640;2023-03-30T02:08:46;98183.75;;;11.04;69.16
57779;BME280;43608;49.486;9.640;2023-03-30T02:09:20;98204.06;;;11.04;69.18
57779;BME280;43608;49.486;9.640;2023-03-30T02:09:54;98182.97;;;10.96;69.18
57779;BME280;43608;49.486;9.640;2023-03-30T02:10:29;98194.34;;;11.04;69.38
57779;BME280;43608;49.486;9.640;2023-03-30T02:11:01;98184.69;;;10.99;69.27
57779;BME280;43608;49.486;9.640;2023-03-30T02:11:33;98175.09;;;10.91;69.26
57779;BME280;43608;49.486;9.640;2023-03-30T02:12:08;98188.31;;;10.93;69.24
57779;BME280;43608;49.486;9.640;2023-03-30T02:12:39;98205.00;;;11.03;69.24
57779;BME280;43608;49.486;9.640;2023-03-30T02:13:11;98193.56;;;10.98;69.17
57779;BME280;43608;49.486;9.640;2023-03-30T02:13:43;98181.19;;;10.97;69.23
57779;BME280;43608;49.486;9.640;2023-03-30T02:14:17;98185.63;;;10.98;69.47
57779;BME280;43608;49.486;9.640;2023-03-30T02:14:50;98175.09;;;10.88;69.52
57779;BME280;43608;49.486;9.640;2023-03-30T02:15:23;98168.91;;;10.89;69.46
57779;BME280;43608;49.486;9.640;2023-03-30T02:15:58;98197.03;;;11.03;69.47
57779;BME280;43608;49.486;9.640;2023-03-30T02:16:37;98183.84;;;10.97;69.23
57779;BME280;43608;49.486;9.640;2023-03-30T02:17:20;98196.22;;;10.98;69.66
57779;BME280;43608;49.486;9.640;2023-03-30T02:17:52;98183.00;;;10.93;69.35
57779;BME280;43608;49.486;9.640;2023-03-30T02:18:22;98190.03;;;10.96;69.48
57779;BME280;43608;49.486;9.640;2023-03-30T02:18:52;98177.75;;;10.90;69.70
57779;BME280;43608;49.486;9.640;2023-03-30T02:19:23;98188.22;;;11.01;69.57
57779;BME280;43608;49.486;9.640;2023-03-30T02:19:54;98172.34;;;10.96;69.73
57779;BME280;43608;49.486;9.640;2023-03-30T02:20:28;98173.28;;;10.94;69.92
57779;BME280;43608;49.486;9.640;2023-03-30T02:20:59;98175.00;;;10.96;69.70
57779;BME280;43608;49.486;9.640;2023-03-30T02:21:31;98191.72;;;11.03;69.91
57779;BME280;43608;49.486;9.640;2023-03-30T02:22:02;98198.78;;;11.02;69.94
57779;BME280;43608;49.486;9.640;2023-03-30T02:22:33;98191.69;;;11.04;69.77
57779;BME280;43608;49.486;9.640;2023-03-30T02:23:04;98192.56;;;11.05;69.96
57779;BME280;43608;49.486;9.640;2023-03-30T02:23:38;98193.44;;;11.07;69.95
57779;BME280;43608;49.486;9.640;2023-03-30T02:24:17;98182.88;;;11.02;69.90
57779;BME280;43608;49.486;9.640;2023-03-30T02:24:52;98180.22;;;11.02;69.87
57779;BME280;43608;49.486;9.640;2023-03-30T02:25:23;98185.44;;;11.08;69.82
57779;BME280;43608;49.486;9.640;2023-03-30T02:25:55;98180.16;;;11.08;69.59
57779;BME280;43608;49.486;9.640;2023-03-30T02:26:26;98178.41;;;11.06;70.11
57779;BME280;43608;49.486;9.640;2023-03-30T02:26:59;98194.19;;;11.15;69.69
57779;BME280;43608;49.486;9.640;2023-03-30T02:27:33;98169.63;;;11.02;69.86
57779;BME280;43608;49.486;9.640;2023-03-30T02:28:06;98191.53;;;11.15;69.63
57779;BME280;43608;49.486;9.640;2023-03-30T02:28:37;98166.03;;;11.05;69.83
57779;BME280;43608;49.486;9.640;2023-03-30T02:29:08;98176.59;;;11.10;69.69
57779;BME280;43608;49.486;9.640;2023-03-30T02:29:41;98184.44;;;11.16;69.55
57779;BME280;43608;49.486;9.640;2023-03-30T02:30:12;98155.53;;;11.00;69.49
57779;BME280;43608;49.486;9.640;2023-03-30T02:30:45;98190.63;;;11.18;69.52
57779;BME280;43608;49.486;9.640;2023-03-30T02:31:16;98170.41;;;11.09;69.79
57779;BME280;43608;49.486;9.640;2023-03-30T02:31:48;98190.59;;;11.19;69.67
57779;BME280;43608;49.486;9.640;2023-03-30T02:32:41;98187.06;;;11.19;69.62
57779;BME280;43608;49.486;9.640;2023-03-30T02:33:24;98177.44;;;11.12;69.57
57779;BME280;43608;49.486;9.640;2023-03-30T02:35:12;98196.84;;;11.15;69.83
57779;BME280;43608;49.486;9.640;2023-03-30T02:37:41;98181.13;;;11.01;69.90
57779;BME280;43608;49.486;9.640;2023-03-30T02:41:16;98195.19;;;11.08;70.01
57779;BME280;43608;49.486;9.640;2023-03-30T02:42:09;98190.78;;;11.07;70.46
57779;BME280;43608;49.486;9.640;2023-03-30T02:47:07;98199.72;;;11.00;70.88
57779;BME280;43608;49.486;9.640;2023-03-30T02:48:08;98195.31;;;10.97;70.92
57779;BME280;43608;49.486;9.640;2023-03-30T02:50:04;98156.66;;;10.82;71.06
57779;BME280;43608;49.486;9.640;2023-03-30T02:51:38;98181.16;;;11.00;71.05
57779;BME280;43608;49.486;9.640;2023-03-30T02:55:06;98169.47;;;11.13;70.72
57779;BME280;43608;49.486;9.640;2023-03-30T02:56:47;98175.59;;;11.17;70.62
57779;BME280;43608;49.486;9.640;2023-03-30T02:57:26;98177.28;;;11.24;70.37
57779;BME280;43608;49.486;9.640;2023-03-30T03:00:51;98186.88;;;11.33;70.13
57779;BME280;43608;49.486;9.640;2023-03-30T03:01:43;98186.75;;;11.39;70.10
57779;BME280;43608;49.486;9.640;2023-03-30T03:02:18;98184.19;;;11.34;70.07
57779;BME280;43608;49.486;9.640;2023-03-30T03:02:54;98185.94;;;11.35;70.11
57779;BME280;43608;49.486;9.640;2023-03-30T03:03:35;98191.13;;;11.41;69.95
57779;BME280;43608;49.486;9.640;2023-03-30T03:04:08;98178.00;;;11.34;70.00
57779;BME280;43608;49.486;9.640;2023-03-30T03:04:39;98186.81;;;11.36;69.95
57779;BME280;43608;49.486;9.640;2023-03-30T03:05:13;98199.91;;;11.47;69.80
57779;BME280;43608;49.486;9.640;2023-03-30T03:05:46;98174.44;;;11.35;69.81
57779;BME280;43608;49.486;9.640;2023-03-30T03:06:17;98179.75;;;11.35;69.82
57779;BME280;43608;49.486;9.640;2023-03-30T03:06:50;98191.09;;;11.45;69.86
57779;BME280;43608;49.486;9.640;2023-03-30T03:07:23;98173.56;;;11.34;69.79
57779;BME280;43608;49.486;9.640;2023-03-30T03:07:54;98182.28;;;11.43;69.81
57779;BME280;43608;49.486;9.640;2023-03-30T03:08:28;98197.19;;;11.51;69.82
57779;BME280;43608;49.486;9.640;2023-03-30T03:08:59;98191.97;;;11.45;69.88
57779;BME280;43608;49.486;9.640;2023-03-30T03:09:30;98192.88;;;11.44;69.83
57779;BME280;43608;49.486;9.640;2023-03-30T03:10:01;98212.25;;;11.49;69.75
57779;BME280;43608;49.486;9.640;2023-03-30T03:10:31;98188.53;;;11.38;69.78
57779;BME280;43608;49.486;9.640;2023-03-30T03:11:05;98199.09;;;11.43;69.93
57779;BME280;43608;49.486;9.640;2023-03-30T03:11:36;98190.38;;;11.33;70.12
57779;BME280;43608;49.486;9.640;2023-03-30T03:12:07;98205.31;;;11.39;70.11
57779;BME280;43608;49.486;9.640;2023-03-30T03:12:38;98205.34;;;11.37;70.11
57779;BME280;43608;49.486;9.640;2023-03-30T03:13:08;98214.19;;;11.39;70.12
57779;BME280;43608;49.486;9.640;2023-03-30T03:13:40;98208.91;;;11.38;70.09
57779;BME280;43608;49.486;9.640;2023-03-30T03:14:11;98194.94;;;11.25;70.07
57779;BME280;43608;49.486;9.640;2023-03-30T03:14:41;98205.53;;;11.27;70.36
57779;BME280;43608;49.486;9.640;2023-03-30T03:15:12;98194.97;;;11.22;70.34
57779;BME280;43608;49.486;9.640;2023-03-30T03:15:43;98218.72;;;11.30;70.54
57779;BME280;43608;49.486;9.640;2023-03-30T03:16:14;98209.94;;;11.26;70.84
57779;BME280;43608;49.486;9.640;2023-03-30T03:16:46;98210.91;;;11.20;70.75
57779;BME280;43608;49.486;9.640;2023-03-30T03:17:16;98201.19;;;11.19;70.72
57779;BME280;43608;49.486;9.640;2023-03-30T03:17:51;98193.38;;;11.10;71.05
57779;BME280;43608;49.486;9.640;2023-03-30T03:18:22;98196.09;;;11.07;71.18
57779;BME280;43608;49.486;9.640;2023-03-30T03:18:52;98214.50;;;11.16;71.15
57779;BME280;43608;49.486;9.640;2023-03-30T03:19:23;98218.97;;;11.13;71.66
57779;BME280;43608;49.486;9.640;2023-03-30T03:19:54;98215.50;;;11.09;71.48
57779;BME280;43608;49.486;9.640;2023-03-30T03:20:24;98216.34;;;11.11;71.71
57779;BME280;43608;49.486;9.640;2023-03-30T03:21:00;98193.56;;;10.98;71.88
57779;BME280;43608;49.486;9.640;2023-03-30T03:21:30;98195.28;;;11.02;72.16
57779;BME280;43608;49.486;9.640;2023-03-30T03:22:00;98205.78;;;11.06;72.37
57779;BME280;43608;49.486;9.640;2023-03-30T03:22:31;98210.22;;;11.07;72.28
57779;BME280;43608;49.486;9.640;2023-03-30T03:23:01;98215.50;;;11.09;72.32
57779;BME280;43608;49.486;9.640;2023-03-30T03:23:32;98216.31;;;11.13;72.51
57779;BME280;43608;49.486;9.640;2023-03-30T03:24:03;98218.00;;;11.18;72.70
57779;BME280;43608;49.486;9.640;2023-03-30T03:24:34;98211.81;;;11.19;72.65
57779;BME280;43608;49.486;9.640;2023-03-30T03:25:08;98210.06;;;11.17;72.50
57779;BME280;43608;49.486;9.640;2023-03-30T03:25:39;98213.50;;;11.23;72.65
57779;BME280;43608;49.486;9.640;2023-03-30T03:26:09;98213.41;;;11.33;72.60
57779;BME280;43608;49.486;9.640;2023-03-30T03:26:40;98214.22;;;11.38;72.67
57779;BME280;43608;49.486;9.640;2023-03-30T03:27:11;98186.03;;;11.29;72.24
57779;BME280;43608;49.486;9.640;2023-03-30T03:27:41;98200.88;;;11.41;72.37
57779;BME280;43608;49.486;9.640;2023-03-30T03:28:11;98193.75;;;11.45;72.33
57779;BME280;43608;49.486;9.640;2023-03-30T03:28:42;98180.53;;;11.41;72.04
57779;BME280;43608;49.486;9.640;2023-03-30T03:29:13;98194.50;;;11.53;72.39
57779;BME280;43608;49.486;9.640;2023-03-30T03:29:44;98197.03;;;11.61;72.37
57779;BME280;43608;49.486;9.640;2023-03-30T03:30:14;98193.47;;;11.63;72.94
57779;BME280;43608;49.486;9.640;2023-03-30T03:30:47;98182.88;;;11.62;72.81
57779;BME280;43608;49.486;9.640;2023-03-30T03:31:17;98186.34;;;11.64;72.80
57779;BME280;43608;49.486;9.640;2023-03-30T03:31:47;98162.63;;;11.54;73.27
57779;BME280;43608;49.486;9.640;2023-03-30T03:32:18;98181.84;;;11.69;72.91
57779;BME280;43608;49.486;9.640;2023-03-30T03:32:49;98175.72;;;11.67;72.94
57779;BME280;43608;49.486;9.640;2023-03-30T03:33:21;98180.94;;;11.70;73.36
57779;BME280;43608;49.486;9.640;2023-03-30T03:33:51;98131.88;;;11.43;73.25
57779;BME280;43608;49.486;9.640;2023-03-30T03:34:22;98172.19;;;11.65;73.18
57779;BME280;43608;49.486;9.640;2023-03-30T03:34:55;98162.47;;;11.64;73.07
57779;BME280;43608;49.486;9.640;2023-03-30T03:35:25;98170.31;;;11.73;73.15
57779;BME280;43608;49.486;9.640;2023-03-30T03:35:59;98178.25;;;11.74;73.31
57779;BME280;43608;49.486;9.640;2023-03-30T03:36:29;98173.84;;;11.72;73.29
57779;BME280;43608;49.486;9.640;2023-03-30T03:37:01;98159.81;;;11.64;73.44
57779;BME280;43608;49.486;9.640;2023-03-30T03:37:31;98179.97;;;11.77;73.46
57779;BME280;43608;49.486;9.640;2023-03-30T03:38:02;98179.97;;;11.76;73.71
57779;BME280;43608;49.486;9.640;2023-03-30T03:38:32;98183.44;;;11.79;73.47
57779;BME280;43608;49.486;9.640;2023-03-30T03:39:03;98172.97;;;11.71;73.46
57779;BME280;43608;49.486;9.640;2023-03-30T03:39:33;98174.66;;;11.76;73.62
57779;BME280;43608;49.486;9.640;2023-03-30T03:40:06;98165.88;;;11.72;73.57
57779;BME280;43608;49.486;9.640;2023-03-30T03:40:37;98178.13;;;11.79;73.80
57779;BME280;43608;49.486;9.640;2023-03-30T03:41:07;98163.22;;;11.72;73.88
57779;BME280;43608;49.486;9.640;2023-03-30T03:41:38;98183.41;;;11.81;73.97